sensor_id;sensor_type;location;lat;lon;timestamp;pressure;altitude;pressure_sealevel;temperature;humidity
69971;BME280;57301;50.328;8.542;2022-07-29T00:01:49;98431.19;;;18.12;49.95
69971;BME280;57301;50.328;8.542;2022-07-29T00:04:16;98424.97;;;18.18;50.69
69971;BME280;57301;50.328;8.542;2022-07-29T00:06:43;98416.69;;;18.53;51.12
69971;BME280;57301;50.328;8.542;2022-07-29T00:09:09;98410.94;;;18.76;50.77
69971;BME280;57301;50.328;8.542;2022-07-29T00:11:36;98412.38;;;18.72;52.16
69971;BME280;57301;50.328;8.542;2022-07-29T00:14:04;98425.47;;;18.88;55.17
69971;BME280;57301;50.328;8.542;2022-07-29T00:16:30;98431.69;;;18.62;59.51
69971;BME280;57301;50.328;8.542;2022-07-29T00:18:57;98431.19;;;18.19;61.46
69971;BME280;57301;50.328;8.542;2022-07-29T00:21:27;98435.34;;;18.21;61.82
69971;BME280;57301;50.328;8.542;2022-07-29T00:23:54;98433.72;;;18.40;59.58
69971;BME280;57301;50.328;8.542;2022-07-29T00:26:20;98434.13;;;18.24;61.43
69971;BME280;57301;50.328;8.542;2022-07-29T00:28:47;98449.47;;;18.17;62.42
69971;BME280;57301;50.328;8.542;2022-07-29T00:31:13;98445.16;;;18.42;62.12
69971;BME280;57301;50.328;8.542;2022-07-29T00:33:40;98448.88;;;18.35;65.77
69971;BME280;57301;50.328;8.542;2022-07-29T00:36:06;98461.19;;;17.89;70.53
69971;BME280;57301;50.328;8.542;2022-07-29T00:38:33;98467.38;;;17.49;70.69
69971;BME280;57301;50.328;8.542;2022-07-29T00:40:59;98467.34;;;16.43;74.83
69971;BME280;57301;50.328;8.542;2022-07-29T00:43:26;98459.78;;;16.53;76.16
69971;BME280;57301;50.328;8.542;2022-07-29T00:45:56;98446.25;;;17.17;73.54
69971;BME280;57301;50.328;8.542;2022-07-29T00:48:22;98428.66;;;17.56;74.30
69971;BME280;57301;50.328;8.542;2022-07-29T00:50:49;98426.31;;;17.46;75.22
69971;BME280;57301;50.328;8.542;2022-07-29T00:53:16;98420.09;;;17.46;76.42
69971;BME280;57301;50.328;8.542;2022-07-29T00:55:43;98418.78;;;17.35;77.19
69971;BME280;57301;50.328;8.542;2022-07-29T00:58:11;98424.81;;;17.37;77.03
69971;BME280;57301;50.328;8.542;2022-07-29T01:00:38;98424.53;;;17.26;77.52
69971;BME280;57301;50.328;8.542;2022-07-29T01:03:07;98426.75;;;16.87;79.73
69971;BME280;57301;50.328;8.542;2022-07-29T01:05:34;98419.91;;;17.13;79.56
69971;BME280;57301;50.328;8.542;2022-07-29T01:08:17;98416.81;;;17.16;79.50
69971;BME280;57301;50.328;8.542;2022-07-29T01:10:45;98407.53;;;17.25;79.52
69971;BME280;57301;50.328;8.542;2022-07-29T01:13:14;98403.31;;;17.16;77.81
69971;BME280;57301;50.328;8.542;2022-07-29T01:15:49;98411.72;;;17.00;80.37
69971;BME280;57301;50.328;8.542;2022-07-29T01:18:28;98414.06;;;16.81;80.81
69971;BME280;57301;50.328;8.542;2022-07-29T01:26:37;98408.13;;;16.43;84.02
69971;BME280;57301;50.328;8.542;2022-07-29T01:34:42;98373.84;;;17.08;81.88
69971;BME280;57301;50.328;8.542;2022-07-29T01:37:23;98350.78;;;16.99;82.49
69971;BME280;57301;50.328;8.542;2022-07-29T01:39:54;98356.78;;;16.94;82.64
69971;BME280;57301;50.328;8.542;2022-07-29T01:42:45;98360.69;;;16.63;83.40
69971;BME280;57301;50.328;8.542;2022-07-29T01:48:21;98358.53;;;16.80;82.22
69971;BME280;57301;50.328;8.542;2022-07-29T01:50:58;98357.50;;;16.81;82.69
69971;BME280;57301;50.328;8.542;2022-07-29T01:53:35;98355.06;;;16.86;82.77
69971;BME280;57301;50.328;8.542;2022-07-29T01:56:04;98346.59;;;16.89;82.09
69971;BME280;57301;50.328;8.542;2022-07-29T01:58:34;98343.97;;;17.03;82.63
69971;BME280;57301;50.328;8.542;2022-07-29T02:01:03;98358.34;;;17.16;81.83
69971;BME280;57301;50.328;8.542;2022-07-29T02:03:31;98356.63;;;17.02;82.79
69971;BME280;57301;50.328;8.542;2022-07-29T02:06:01;98352.66;;;16.98;82.02
69971;BME280;57301;50.328;8.542;2022-07-29T02:08:29;98353.28;;;17.00;82.40
69971;BME280;57301;50.328;8.542;2022-07-29T02:10:58;98348.03;;;16.36;84.81
69971;BME280;57301;50.328;8.542;2022-07-29T02:13:27;98344.78;;;16.19;85.75
69971;BME280;57301;50.328;8.542;2022-07-29T02:15:55;98345.63;;;16.48;84.61
69971;BME280;57301;50.328;8.542;2022-07-29T02:18:25;98333.69;;;16.57;85.30
69971;BME280;57301;50.328;8.542;2022-07-29T02:20:55;98336.84;;;16.60;84.68
69971;BME280;57301;50.328;8.542;2022-07-29T02:23:23;98339.31;;;16.83;83.88
69971;BME280;57301;50.328;8.542;2022-07-29T02:25:56;98338.75;;;16.17;86.91
69971;BME280;57301;50.328;8.542;2022-07-29T02:28:26;98339.78;;;16.16;87.03
69971;BME280;57301;50.328;8.542;2022-07-29T02:30:57;98332.63;;;15.29;91.75
69971;BME280;57301;50.328;8.542;2022-07-29T02:33:25;98329.59;;;15.54;90.16
69971;BME280;57301;50.328;8.542;2022-07-29T02:35:52;98329.34;;;15.85;88.88
69971;BME280;57301;50.328;8.542;2022-07-29T02:38:20;98329.41;;;16.13;87.49
69971;BME280;57301;50.328;8.542;2022-07-29T02:41:12;98326.75;;;16.20;86.39
69971;BME280;57301;50.328;8.542;2022-07-29T02:43:40;98326.66;;;16.06;86.30
69971;BME280;57301;50.328;8.542;2022-07-29T02:46:12;98324.47;;;15.95;87.34
69971;BME280;57301;50.328;8.542;2022-07-29T02:51:41;98324.56;;;16.51;84.73
69971;BME280;57301;50.328;8.542;2022-07-29T02:54:14;98321.75;;;16.38;85.37
69971;BME280;57301;50.328;8.542;2022-07-29T02:56:47;98332.22;;;16.54;85.28
69971;BME280;57301;50.328;8.542;2022-07-29T02:59:20;98332.91;;;15.71;88.46
69971;BME280;57301;50.328;8.542;2022-07-29T03:01:48;98337.91;;;15.08;94.00
69971;BME280;57301;50.328;8.542;2022-07-29T03:04:17;98333.84;;;15.12;94.86
69971;BME280;57301;50.328;8.542;2022-07-29T03:06:46;98343.56;;;15.13;94.35
69971;BME280;57301;50.328;8.542;2022-07-29T03:09:13;98332.72;;;15.21;94.42
69971;BME280;57301;50.328;8.542;2022-07-29T03:11:40;98342.34;;;15.30;93.79
69971;BME280;57301;50.328;8.542;2022-07-29T03:14:19;98339.00;;;15.79;91.51
69971;BME280;57301;50.328;8.542;2022-07-29T03:16:47;98343.47;;;15.57;90.74
69971;BME280;57301;50.328;8.542;2022-07-29T03:19:14;98355.09;;;15.43;91.52
69971;BME280;57301;50.328;8.542;2022-07-29T03:21:41;98351.66;;;15.64;90.34
69971;BME280;57301;50.328;8.542;2022-07-29T03:24:08;98351.56;;;15.72;89.37
69971;BME280;57301;50.328;8.542;2022-07-29T03:26:36;98334.25;;;16.24;86.98
69971;BME280;57301;50.328;8.542;2022-07-29T03:29:03;98337.31;;;16.43;86.56
69971;BME280;57301;50.328;8.542;2022-07-29T03:31:29;98324.47;;;16.45;86.40
69971;BME280;57301;50.328;8.542;2022-07-29T03:33:56;98326.81;;;16.26;86.40
69971;BME280;57301;50.328;8.542;2022-07-29T03:36:23;98323.84;;;16.43;86.33
69971;BME280;57301;50.328;8.542;2022-07-29T03:38:51;98327.84;;;16.47;84.46
69971;BME280;57301;50.328;8.542;2022-07-29T03:41:18;98338.59;;;16.47;83.55
69971;BME280;57301;50.328;8.542;2022-07-29T03:43:49;98342.75;;;16.49;83.70
69971;BME280;57301;50.328;8.542;2022-07-29T03:46:21;98351.69;;;16.56;82.75
69971;BME280;57301;50.328;8.542;2022-07-29T03:48:50;98343.09;;;16.39;84.68
69971;BME280;57301;50.328;8.542;2022-07-29T03:51:19;98319.94;;;16.17;84.52
69971;BME280;57301;50.328;8.542;2022-07-29T03:54:01;98290.97;;;16.19;85.58
69971;BME280;57301;50.328;8.542;2022-07-29T03:56:38;98283.78;;;16.26;85.04
69971;BME280;57301;50.328;8.542;2022-07-29T03:59:06;98282.00;;;16.12;85.69
69971;BME280;57301;50.328;8.542;2022-07-29T04:01:34;98287.50;;;15.61;86.70
69971;BME280;57301;50.328;8.542;2022-07-29T04:04:01;98304.78;;;14.86;92.03
69971;BME280;57301;50.328;8.542;2022-07-29T04:06:28;98299.91;;;15.41;89.57
69971;BME280;57301;50.328;8.542;2022-07-29T04:08:55;98297.13;;;15.70;85.84
69971;BME280;57301;50.328;8.542;2022-07-29T04:11:21;98325.06;;;15.91;84.34
69971;BME280;57301;50.328;8.542;2022-07-29T04:13:48;98320.97;;;16.16;84.53
69971;BME280;57301;50.328;8.542;2022-07-29T04:16:14;98320.13;;;16.16;85.15
69971;BME280;57301;50.328;8.542;2022-07-29T04:18:41;98316.16;;;15.90;86.51
69971;BME280;57301;50.328;8.542;2022-07-29T04:21:07;98317.00;;;15.91;86.67
69971;BME280;57301;50.328;8.542;2022-07-29T04:23:34;98314.81;;;16.01;86.23
69971;BME280;57301;50.328;8.542;2022-07-29T04:26:13;98309.88;;;16.04;85.87
69971;BME280;57301;50.328;8.542;2022-07-29T04:28:39;98310.72;;;16.05;85.84
69971;BME280;57301;50.328;8.542;2022-07-29T04:31:06;98306.31;;;15.97;85.86
69971;BME280;57301;50.328;8.542;2022-07-29T04:33:33;98325.44;;;15.66;88.65
69971;BME280;57301;50.328;8.542;2022-07-29T04:35:59;98323.44;;;15.75;87.96
69971;BME280;57301;50.328;8.542;2022-07-29T04:38:26;98323.91;;;15.78;87.31
69971;BME280;57301;50.328;8.542;2022-07-29T04:40:52;98332.81;;;15.79;86.49
69971;BME280;57301;50.328;8.542;2022-07-29T04:43:22;98329.84;;;15.74;86.94
69971;BME280;57301;50.328;8.542;2022-07-29T04:45:50;98326.13;;;15.75;86.14
69971;BME280;57301;50.328;8.542;2022-07-29T04:48:16;98315.78;;;15.72;86.12
69971;BME280;57301;50.328;8.542;2022-07-29T04:50:43;98325.44;;;15.66;86.00
69971;BME280;57301;50.328;8.542;2022-07-29T04:53:10;98327.94;;;15.53;86.29
69971;BME280;57301;50.328;8.542;2022-07-29T04:55:37;98328.31;;;15.50;86.05
69971;BME280;57301;50.328;8.542;2022-07-29T04:58:04;98330.09;;;15.43;86.50
69971;BME280;57301;50.328;8.542;2022-07-29T05:00:30;98324.72;;;15.43;86.44
69971;BME280;57301;50.328;8.542;2022-07-29T05:02:58;98327.69;;;15.48;86.68
69971;BME280;57301;50.328;8.542;2022-07-29T05:05:25;98332.47;;;15.52;86.55
69971;BME280;57301;50.328;8.542;2022-07-29T05:07:52;98340.78;;;15.57;86.84
69971;BME280;57301;50.328;8.542;2022-07-29T05:10:18;98339.31;;;15.04;89.00
69971;BME280;57301;50.328;8.542;2022-07-29T05:12:45;98335.31;;;15.29;87.60
69971;BME280;57301;50.328;8.542;2022-07-29T05:15:11;98334.06;;;15.47;87.62
69971;BME280;57301;50.328;8.542;2022-07-29T05:17:38;98340.25;;;15.62;86.39
69971;BME280;57301;50.328;8.542;2022-07-29T05:20:05;98341.97;;;15.84;84.93
69971;BME280;57301;50.328;8.542;2022-07-29T05:22:32;98354.22;;;16.08;84.49
69971;BME280;57301;50.328;8.542;2022-07-29T05:24:59;98344.44;;;16.29;83.74
69971;BME280;57301;50.328;8.542;2022-07-29T05:27:32;98348.75;;;16.23;84.32
69971;BME280;57301;50.328;8.542;2022-07-29T05:29:58;98352.41;;;16.65;83.46
69971;BME280;57301;50.328;8.542;2022-07-29T05:32:25;98351.13;;;16.82;83.01
69971;BME280;57301;50.328;8.542;2022-07-29T05:34:51;98341.44;;;17.90;78.93
69971;BME280;57301;50.328;8.542;2022-07-29T05:37:19;98340.56;;;19.29;73.56
69971;BME280;57301;50.328;8.542;2022-07-29T05:39:46;98351.13;;;21.02;66.67
69971;BME280;57301;50.328;8.542;2022-07-29T05:42:16;98341.78;;;22.43;61.13
69971;BME280;57301;50.328;8.542;2022-07-29T05:44:42;98357.34;;;23.13;58.10
69971;BME280;57301;50.328;8.542;2022-07-29T05:47:09;98354.34;;;23.38;57.61
69971;BME280;57301;50.328;8.542;2022-07-29T05:49:35;98356.75;;;22.99;58.26
69971;BME280;57301;50.328;8.542;2022-07-29T05:52:02;98358.72;;;24.19;54.03
69971;BME280;57301;50.328;8.542;2022-07-29T05:54:29;98363.91;;;25.38;50.78
69971;BME280;57301;50.328;8.542;2022-07-29T05:56:56;98356.06;;;25.86;49.79
69971;BME280;57301;50.328;8.542;2022-07-29T05:59:22;98356.75;;;26.84;47.15
69971;BME280;57301;50.328;8.542;2022-07-29T06:01:55;98363.06;;;25.77;49.23
69971;BME280;57301;50.328;8.542;2022-07-29T06:04:23;98360.53;;;27.63;44.87
69971;BME280;57301;50.328;8.542;2022-07-29T06:06:50;98360.66;;;26.07;48.52
69971;BME280;57301;50.328;8.542;2022-07-29T06:09:16;98357.06;;;26.29;48.29
69971;BME280;57301;50.328;8.542;2022-07-29T06:11:43;98353.78;;;27.91;42.27
69971;BME280;57301;50.328;8.542;2022-07-29T06:14:09;98363.25;;;28.76;40.01
69971;BME280;57301;50.328;8.542;2022-07-29T06:16:36;98350.34;;;29.23;39.27
69971;BME280;57301;50.328;8.542;2022-07-29T06:19:03;98349.16;;;29.49;37.25
69971;BME280;57301;50.328;8.542;2022-07-29T06:21:30;98354.56;;;29.75;38.50
69971;BME280;57301;50.328;8.542;2022-07-29T06:23:57;98349.00;;;29.90;37.58
69971;BME280;57301;50.328;8.542;2022-07-29T06:26:23;98358.19;;;29.65;38.34
69971;BME280;57301;50.328;8.542;2022-07-29T06:28:56;98361.16;;;29.79;37.29
69971;BME280;57301;50.328;8.542;2022-07-29T06:31:23;98355.50;;;30.09;37.38
69971;BME280;57301;50.328;8.542;2022-07-29T06:33:49;98355.59;;;30.38;36.52
69971;BME280;57301;50.328;8.542;2022-07-29T06:36:19;98355.13;;;30.26;35.36
69971;BME280;57301;50.328;8.542;2022-07-29T06:38:48;98350.16;;;30.33;36.87
69971;BME280;57301;50.328;8.542;2022-07-29T06:41:17;98343.13;;;30.85;35.95
69971;BME280;57301;50.328;8.542;2022-07-29T06:43:45;98350.94;;;30.39;35.83
69971;BME280;57301;50.328;8.542;2022-07-29T06:46:20;98355.31;;;30.40;37.09
69971;BME280;57301;50.328;8.542;2022-07-29T06:48:49;98351.41;;;29.27;38.08
69971;BME280;57301;50.328;8.542;2022-07-29T06:51:17;98349.19;;;28.06;40.22
69971;BME280;57301;50.328;8.542;2022-07-29T06:53:50;98357.44;;;26.69;41.76
69971;BME280;57301;50.328;8.542;2022-07-29T06:56:29;98359.34;;;26.10;45.76
69971;BME280;57301;50.328;8.542;2022-07-29T06:58:57;98363.53;;;26.44;43.30
69971;BME280;57301;50.328;8.542;2022-07-29T07:01:23;98357.91;;;26.29;45.24
69971;BME280;57301;50.328;8.542;2022-07-29T07:03:50;98370.41;;;26.47;45.48
69971;BME280;57301;50.328;8.542;2022-07-29T07:06:16;98367.31;;;26.70;44.56
69971;BME280;57301;50.328;8.542;2022-07-29T07:08:43;98369.66;;;27.31;42.78
69971;BME280;57301;50.328;8.542;2022-07-29T07:11:10;98374.44;;;28.29;39.77
69971;BME280;57301;50.328;8.542;2022-07-29T07:13:36;98375.91;;;28.98;37.49
69971;BME280;57301;50.328;8.542;2022-07-29T07:16:04;98370.03;;;29.55;37.43
69971;BME280;57301;50.328;8.542;2022-07-29T07:18:30;98374.16;;;30.17;35.49
69971;BME280;57301;50.328;8.542;2022-07-29T07:20:57;98377.88;;;30.42;35.96
69971;BME280;57301;50.328;8.542;2022-07-29T07:23:24;98385.63;;;30.74;34.56
69971;BME280;57301;50.328;8.542;2022-07-29T07:25:51;98383.72;;;31.03;34.62
69971;BME280;57301;50.328;8.542;2022-07-29T07:28:18;98383.00;;;31.22;35.49
69971;BME280;57301;50.328;8.542;2022-07-29T07:30:50;98387.06;;;31.29;34.35
69971;BME280;57301;50.328;8.542;2022-07-29T07:33:17;98389.72;;;31.40;33.78
69971;BME280;57301;50.328;8.542;2022-07-29T07:35:44;98380.75;;;31.29;33.49
69971;BME280;57301;50.328;8.542;2022-07-29T07:38:11;98388.78;;;31.25;33.68
69971;BME280;57301;50.328;8.542;2022-07-29T07:40:37;98382.16;;;31.26;34.30
69971;BME280;57301;50.328;8.542;2022-07-29T07:43:04;98379.16;;;30.94;34.60
69971;BME280;57301;50.328;8.542;2022-07-29T07:45:30;98384.44;;;31.14;33.31
69971;BME280;57301;50.328;8.542;2022-07-29T07:48:00;98370.44;;;31.40;33.31
69971;BME280;57301;50.328;8.542;2022-07-29T07:50:27;98376.31;;;31.81;32.79
69971;BME280;57301;50.328;8.542;2022-07-29T07:52:55;98371.22;;;31.45;32.22
69971;BME280;57301;50.328;8.542;2022-07-29T07:55:25;98370.44;;;31.64;32.28
69971;BME280;57301;50.328;8.542;2022-07-29T07:57:53;98377.66;;;31.60;32.81
69971;BME280;57301;50.328;8.542;2022-07-29T08:00:20;98369.84;;;30.85;33.79
69971;BME280;57301;50.328;8.542;2022-07-29T08:02:49;98378.28;;;30.59;34.84
69971;BME280;57301;50.328;8.542;2022-07-29T08:05:16;98368.59;;;30.72;33.65
69971;BME280;57301;50.328;8.542;2022-07-29T08:07:46;98375.66;;;31.12;33.03
69971;BME280;57301;50.328;8.542;2022-07-29T08:10:17;98372.19;;;31.01;34.35
69971;BME280;57301;50.328;8.542;2022-07-29T08:13:04;98378.22;;;31.03;34.16
69971;BME280;57301;50.328;8.542;2022-07-29T08:15:31;98367.88;;;30.90;33.64
69971;BME280;57301;50.328;8.542;2022-07-29T08:17:58;98365.84;;;30.33;36.06
69971;BME280;57301;50.328;8.542;2022-07-29T08:20:24;98373.81;;;29.75;36.97
69971;BME280;57301;50.328;8.542;2022-07-29T08:22:52;98369.16;;;29.70;36.98
69971;BME280;57301;50.328;8.542;2022-07-29T08:25:19;98371.13;;;29.49;36.32
69971;BME280;57301;50.328;8.542;2022-07-29T08:27:47;98375.34;;;29.16;37.17
69971;BME280;57301;50.328;8.542;2022-07-29T08:30:15;98372.84;;;29.20;37.43
69971;BME280;57301;50.328;8.542;2022-07-29T08:32:41;98370.09;;;29.25;36.98
69971;BME280;57301;50.328;8.542;2022-07-29T08:35:21;98384.81;;;29.75;37.59
69971;BME280;57301;50.328;8.542;2022-07-29T08:37:48;98368.81;;;30.36;35.07
69971;BME280;57301;50.328;8.542;2022-07-29T08:40:14;98379.34;;;30.68;35.02
69971;BME280;57301;50.328;8.542;2022-07-29T08:42:41;98368.56;;;31.06;33.87
69971;BME280;57301;50.328;8.542;2022-07-29T08:45:08;98377.38;;;31.37;32.96
69971;BME280;57301;50.328;8.542;2022-07-29T08:47:35;98373.72;;;31.66;32.83
69971;BME280;57301;50.328;8.542;2022-07-29T08:50:09;98371.84;;;31.85;33.06
69971;BME280;57301;50.328;8.542;2022-07-29T08:52:40;98371.03;;;32.03;31.06
69971;BME280;57301;50.328;8.542;2022-07-29T08:55:09;98371.72;;;31.71;31.59
69971;BME280;57301;50.328;8.542;2022-07-29T08:57:37;98380.69;;;31.58;32.70
69971;BME280;57301;50.328;8.542;2022-07-29T09:00:17;98380.84;;;31.43;33.08
69971;BME280;57301;50.328;8.542;2022-07-29T09:02:47;98369.25;;;31.46;32.53
69971;BME280;57301;50.328;8.542;2022-07-29T09:05:18;98372.06;;;31.41;33.01
69971;BME280;57301;50.328;8.542;2022-07-29T09:07:45;98374.88;;;30.77;33.54
69971;BME280;57301;50.328;8.542;2022-07-29T09:10:14;98379.19;;;30.89;34.46
69971;BME280;57301;50.328;8.542;2022-07-29T09:12:41;98380.22;;;30.93;34.04
69971;BME280;57301;50.328;8.542;2022-07-29T09:15:07;98378.81;;;31.00;34.29
69971;BME280;57301;50.328;8.542;2022-07-29T09:17:41;98380.94;;;31.09;32.73
69971;BME280;57301;50.328;8.542;2022-07-29T09:20:11;98371.44;;;31.25;32.48
69971;BME280;57301;50.328;8.542;2022-07-29T09:22:38;98373.03;;;30.97;33.92
69971;BME280;57301;50.328;8.542;2022-07-29T09:25:07;98369.56;;;30.47;33.60
69971;BME280;57301;50.328;8.542;2022-07-29T09:27:36;98371.84;;;30.40;34.74
69971;BME280;57301;50.328;8.542;2022-07-29T09:30:08;98362.34;;;30.56;33.82
69971;BME280;57301;50.328;8.542;2022-07-29T09:32:56;98363.78;;;30.88;33.46
69971;BME280;57301;50.328;8.542;2022-07-29T09:35:25;98366.03;;;31.10;32.62
69971;BME280;57301;50.328;8.542;2022-07-29T09:37:53;98363.63;;;29.75;34.16
69971;BME280;57301;50.328;8.542;2022-07-29T09:40:24;98357.28;;;30.34;34.30
69971;BME280;57301;50.328;8.542;2022-07-29T09:42:51;98357.97;;;30.50;33.62
69971;BME280;57301;50.328;8.542;2022-07-29T09:45:31;98349.56;;;30.75;32.98
69971;BME280;57301;50.328;8.542;2022-07-29T09:47:58;98353.72;;;31.02;34.29
69971;BME280;57301;50.328;8.542;2022-07-29T09:50:40;98348.84;;;31.47;33.27
69971;BME280;57301;50.328;8.542;2022-07-29T09:53:07;98349.56;;;31.34;32.15
69971;BME280;57301;50.328;8.542;2022-07-29T09:55:47;98349.09;;;31.26;32.76
69971;BME280;57301;50.328;8.542;2022-07-29T09:58:18;98355.34;;;31.03;32.40
69971;BME280;57301;50.328;8.542;2022-07-29T10:00:47;98348.72;;;31.04;32.47
69971;BME280;57301;50.328;8.542;2022-07-29T10:03:15;98349.66;;;31.47;30.99
69971;BME280;57301;50.328;8.542;2022-07-29T10:05:42;98354.88;;;31.73;32.05
69971;BME280;57301;50.328;8.542;2022-07-29T10:08:10;98355.66;;;31.54;31.58
69971;BME280;57301;50.328;8.542;2022-07-29T10:10:40;98352.38;;;31.28;31.73
69971;BME280;57301;50.328;8.542;2022-07-29T10:13:12;98353.19;;;31.29;32.63
69971;BME280;57301;50.328;8.542;2022-07-29T10:15:43;98349.59;;;31.28;32.12
69971;BME280;57301;50.328;8.542;2022-07-29T10:18:13;98348.97;;;31.37;32.12
69971;BME280;57301;50.328;8.542;2022-07-29T10:20:40;98347.56;;;31.63;32.37
69971;BME280;57301;50.328;8.542;2022-07-29T10:23:06;98348.69;;;31.86;30.69
69971;BME280;57301;50.328;8.542;2022-07-29T10:25:33;98350.47;;;31.96;30.53
69971;BME280;57301;50.328;8.542;2022-07-29T10:28:00;98344.59;;;31.78;29.28
69971;BME280;57301;50.328;8.542;2022-07-29T10:30:26;98345.94;;;32.24;30.55
69971;BME280;57301;50.328;8.542;2022-07-29T10:43:46;98331.38;;;33.62;27.47
69971;BME280;57301;50.328;8.542;2022-07-29T10:46:17;98342.72;;;33.75;27.54
69971;BME280;57301;50.328;8.542;2022-07-29T10:59:36;98325.22;;;34.29;26.98
69971;BME280;57301;50.328;8.542;2022-07-29T11:05:10;98330.63;;;34.34;27.67
69971;BME280;57301;50.328;8.542;2022-07-29T11:07:40;98321.88;;;35.08;26.19
69971;BME280;57301;50.328;8.542;2022-07-29T11:10:27;98323.84;;;35.08;26.72
69971;BME280;57301;50.328;8.542;2022-07-29T11:12:57;98329.06;;;35.09;25.49
69971;BME280;57301;50.328;8.542;2022-07-29T11:15:24;98331.59;;;35.28;27.15
69971;BME280;57301;50.328;8.542;2022-07-29T11:22:58;98329.59;;;32.08;30.37
69971;BME280;57301;50.328;8.542;2022-07-29T11:25:25;98320.16;;;32.66;29.94
69971;BME280;57301;50.328;8.542;2022-07-29T11:28:18;98327.06;;;33.56;27.48
69971;BME280;57301;50.328;8.542;2022-07-29T11:30:52;98325.09;;;32.83;27.73
69971;BME280;57301;50.328;8.542;2022-07-29T11:33:29;98329.16;;;32.39;29.03
69971;BME280;57301;50.328;8.542;2022-07-29T11:36:17;98322.91;;;30.66;30.77
69971;BME280;57301;50.328;8.542;2022-07-29T11:39:25;98316.41;;;30.86;31.18
69971;BME280;57301;50.328;8.542;2022-07-29T11:45:16;98319.53;;;32.18;30.71
69971;BME280;57301;50.328;8.542;2022-07-29T11:48:04;98311.16;;;32.60;31.89
69971;BME280;57301;50.328;8.542;2022-07-29T11:50:52;98311.69;;;32.44;30.40
69971;BME280;57301;50.328;8.542;2022-07-29T11:53:18;98309.09;;;32.15;30.35
69971;BME280;57301;50.328;8.542;2022-07-29T11:55:47;98313.66;;;32.05;30.96
69971;BME280;57301;50.328;8.542;2022-07-29T11:58:23;98303.88;;;31.94;30.97
69971;BME280;57301;50.328;8.542;2022-07-29T12:00:52;98305.06;;;31.88;30.86
69971;BME280;57301;50.328;8.542;2022-07-29T12:03:25;98302.19;;;31.74;32.45
69971;BME280;57301;50.328;8.542;2022-07-29T12:06:01;98292.47;;;31.58;31.91
69971;BME280;57301;50.328;8.542;2022-07-29T12:08:27;98307.84;;;30.19;32.95
69971;BME280;57301;50.328;8.542;2022-07-29T12:10:54;98299.41;;;31.08;31.61
69971;BME280;57301;50.328;8.542;2022-07-29T12:13:21;98305.06;;;31.16;31.82
69971;BME280;57301;50.328;8.542;2022-07-29T12:15:57;98302.72;;;31.34;32.71
69971;BME280;57301;50.328;8.542;2022-07-29T12:18:25;98297.44;;;31.37;31.63
69971;BME280;57301;50.328;8.542;2022-07-29T12:21:01;98293.34;;;31.53;32.08
69971;BME280;57301;50.328;8.542;2022-07-29T12:23:34;98289.56;;;31.92;31.85
69971;BME280;57301;50.328;8.542;2022-07-29T12:26:04;98280.78;;;31.66;32.82
69971;BME280;57301;50.328;8.542;2022-07-29T12:28:37;98268.31;;;31.93;30.82
69971;BME280;57301;50.328;8.542;2022-07-29T12:31:05;98272.25;;;32.24;31.65
69971;BME280;57301;50.328;8.542;2022-07-29T12:33:33;98269.03;;;32.36;30.91
69971;BME280;57301;50.328;8.542;2022-07-29T12:36:02;98276.59;;;32.12;30.97
69971;BME280;57301;50.328;8.542;2022-07-29T12:38:40;98264.47;;;32.26;31.04
69971;BME280;57301;50.328;8.542;2022-07-29T12:41:08;98264.47;;;32.45;30.98
69971;BME280;57301;50.328;8.542;2022-07-29T12:43:34;98266.81;;;32.84;30.10
69971;BME280;57301;50.328;8.542;2022-07-29T12:46:21;98264.31;;;33.15;29.50
69971;BME280;57301;50.328;8.542;2022-07-29T12:48:52;98257.63;;;33.30;29.34
69971;BME280;57301;50.328;8.542;2022-07-29T12:51:36;98258.00;;;33.79;28.53
69971;BME280;57301;50.328;8.542;2022-07-29T12:54:09;98254.44;;;34.14;27.91
69971;BME280;57301;50.328;8.542;2022-07-29T12:56:38;98245.69;;;34.43;27.50
69971;BME280;57301;50.328;8.542;2022-07-29T12:59:15;98253.41;;;34.78;27.13
69971;BME280;57301;50.328;8.542;2022-07-29T13:01:42;98245.75;;;35.06;26.94
69971;BME280;57301;50.328;8.542;2022-07-29T13:04:09;98248.78;;;34.73;26.77
69971;BME280;57301;50.328;8.542;2022-07-29T13:06:59;98250.78;;;33.55;28.25
69971;BME280;57301;50.328;8.542;2022-07-29T13:09:42;98254.19;;;32.65;29.30
69971;BME280;57301;50.328;8.542;2022-07-29T13:12:11;98249.97;;;30.34;32.53
69971;BME280;57301;50.328;8.542;2022-07-29T13:14:43;98254.94;;;30.61;32.50
69971;BME280;57301;50.328;8.542;2022-07-29T13:17:17;98257.94;;;29.42;33.87
69971;BME280;57301;50.328;8.542;2022-07-29T13:19:51;98243.00;;;29.63;34.50
69971;BME280;57301;50.328;8.542;2022-07-29T13:22:23;98254.13;;;29.92;34.61
69971;BME280;57301;50.328;8.542;2022-07-29T13:27:23;98249.38;;;29.59;35.29
69971;BME280;57301;50.328;8.542;2022-07-29T13:29:50;98250.75;;;29.56;36.38
69971;BME280;57301;50.328;8.542;2022-07-29T13:32:20;98252.69;;;29.45;37.01
69971;BME280;57301;50.328;8.542;2022-07-29T13:34:55;98260.03;;;29.06;37.45
69971;BME280;57301;50.328;8.542;2022-07-29T13:37:21;98256.47;;;29.00;36.25
69971;BME280;57301;50.328;8.542;2022-07-29T13:39:48;98258.94;;;28.86;37.28
69971;BME280;57301;50.328;8.542;2022-07-29T13:42:19;98255.16;;;28.57;36.71
69971;BME280;57301;50.328;8.542;2022-07-29T13:44:45;98256.00;;;28.37;38.05
69971;BME280;57301;50.328;8.542;2022-07-29T13:47:12;98256.53;;;28.19;37.65
69971;BME280;57301;50.328;8.542;2022-07-29T13:49:39;98249.91;;;27.89;38.26
69971;BME280;57301;50.328;8.542;2022-07-29T13:52:05;98252.53;;;27.53;38.72
69971;BME280;57301;50.328;8.542;2022-07-29T13:54:34;98257.97;;;27.43;38.33
69971;BME280;57301;50.328;8.542;2022-07-29T13:57:08;98267.84;;;27.39;38.16
69971;BME280;57301;50.328;8.542;2022-07-29T13:59:34;98264.03;;;27.55;38.80
69971;BME280;57301;50.328;8.542;2022-07-29T14:02:01;98267.84;;;27.49;39.10
69971;BME280;57301;50.328;8.542;2022-07-29T14:04:28;98268.69;;;27.50;43.01
69971;BME280;57301;50.328;8.542;2022-07-29T14:06:58;98260.91;;;27.21;45.65